Time;durP1;ratioP1;P1;durP2;ratioP2;P2;SDS_P1;SDS_P2;PMS_P1;PMS_P2;Temp;Humidity;BMP_temperature;BMP_pressure;BME280_temperature;BME280_humidity;BME280_pressure;Samples;Min_cycle;Max_cycle;Signal;HPM_P1;HPM_P2
2022/04/10 00:00:28;;;;;;;;;;;19.10;99.90;;;;;;5064454;28;20035;-61
2022/04/10 00:02:56;;;;;;;;;;;19.10;99.90;;;;;;5060332;28;19924;-61
2022/04/10 00:05:23;;;;;;;;;;;19.10;99.90;;;;;;5064894;28;19924;-60
2022/04/10 00:07:50;;;;;;;;;;;19.10;99.90;;;;;;5060609;28;20380;-58
2022/04/10 00:10:17;;;;;;;;;;;19.10;99.90;;;;;;5055342;28;20752;-60
2022/04/10 00:12:44;;;;;;;;;;;19.10;99.90;;;;;;5043642;28;19925;-62
2022/04/10 00:15:11;;;;;;;;;;;19.10;99.90;;;;;;5058634;28;19924;-60
2022/04/10 00:17:39;;;;;;;;;;;19.10;99.90;;;;;;5058048;28;19932;-59
2022/04/10 00:20:06;;;;;;;;;;;19.10;99.90;;;;;;5042969;28;19925;-60
2022/04/10 00:22:41;;;;;;;;;;;19.10;99.90;;;;;;5062207;28;20360;-61
2022/04/10 00:25:09;;;;;;;;;;;19.10;99.90;;;;;;5058542;28;19935;-58
2022/04/10 00:27:36;;;;;;;;;;;19.10;99.90;;;;;;5058701;28;19924;-60
2022/04/10 00:30:03;;;;;;;;;;;19.10;99.90;;;;;;5054477;28;20404;-62
2022/04/10 00:32:30;;;;;;;;;;;19.00;99.90;;;;;;5058799;28;19970;-62
2022/04/10 00:34:58;;;;;;;;;;;19.00;99.90;;;;;;5060018;28;19935;-62
2022/04/10 00:37:26;;;;;;;;;;;19.10;99.90;;;;;;5048206;28;20321;-60
2022/04/10 00:39:53;;;;;;;;;;;19.00;99.90;;;;;;5065057;28;19924;-61
2022/04/10 00:42:20;;;;;;;;;;;19.00;99.90;;;;;;5055782;28;19925;-62
2022/04/10 00:44:47;;;;;;;;;;;19.00;99.90;;;;;;5069731;28;19962;-62
2022/04/10 00:47:15;;;;;;;;;;;19.00;99.90;;;;;;5066625;28;20258;-62
2022/04/10 00:49:42;;;;;;;;;;;19.00;99.90;;;;;;5063292;28;19925;-59
2022/04/10 00:52:09;;;;;;;;;;;19.00;99.90;;;;;;5062801;28;19928;-61
2022/04/10 00:54:36;;;;;;;;;;;19.00;99.90;;;;;;5056616;28;19924;-61
2022/04/10 00:57:03;;;;;;;;;;;19.00;99.90;;;;;;5067217;28;19921;-62
2022/04/10 00:59:31;;;;;;;;;;;19.00;99.90;;;;;;5059289;28;19924;-61
2022/04/10 01:01:58;;;;;;;;;;;18.90;99.90;;;;;;5054695;28;19929;-63
2022/04/10 01:04:41;;;;;;;;;;;19.00;99.90;;;;;;5055213;28;19924;-59
2022/04/10 01:07:11;;;;;;;;;;;18.90;99.90;;;;;;5061349;28;20412;-62
2022/04/10 01:09:42;;;;;;;;;;;18.90;99.90;;;;;;5050747;28;19976;-62
2022/04/10 01:12:10;;;;;;;;;;;18.90;99.90;;;;;;5036723;28;20516;-61
2022/04/10 01:14:39;;;;;;;;;;;18.90;99.90;;;;;;5044369;28;19928;-61
2022/04/10 01:17:09;;;;;;;;;;;18.90;99.90;;;;;;5041528;28;20460;-62
2022/04/10 01:19:39;;;;;;;;;;;18.90;99.90;;;;;;5038552;28;19931;-61
2022/04/10 01:22:07;;;;;;;;;;;18.90;99.90;;;;;;5046973;28;19927;-62
2022/04/10 01:24:44;;;;;;;;;;;18.90;99.90;;;;;;5044928;28;20279;-61
2022/04/10 01:27:16;;;;;;;;;;;18.90;99.90;;;;;;5035984;28;19921;-61
2022/04/10 01:29:43;;;;;;;;;;;18.90;99.90;;;;;;5063682;28;19928;-59
2022/04/10 01:32:10;;;;;;;;;;;18.90;99.90;;;;;;5056283;28;19921;-61
2022/04/10 01:34:37;;;;;;;;;;;18.80;99.90;;;;;;5055432;28;20473;-61
2022/04/10 01:37:05;;;;;;;;;;;18.80;99.90;;;;;;5048534;28;20313;-60
2022/04/10 01:39:34;;;;;;;;;;;18.80;99.90;;;;;;5041646;28;19924;-61
2022/04/10 01:42:01;;;;;;;;;;;18.90;99.90;;;;;;5043280;28;20412;-61
2022/04/10 01:44:29;;;;;;;;;;;18.80;99.90;;;;;;5052745;28;19939;-61
2022/04/10 01:46:57;;;;;;;;;;;18.80;99.90;;;;;;5056536;28;19924;-60
2022/04/10 01:49:24;;;;;;;;;;;18.80;99.90;;;;;;5042931;28;19931;-60
2022/04/10 01:51:51;;;;;;;;;;;18.80;99.90;;;;;;5046719;28;19931;-61
2022/04/10 01:54:18;;;;;;;;;;;18.80;99.90;;;;;;5060976;28;20339;-60
2022/04/10 01:56:46;;;;;;;;;;;18.80;99.90;;;;;;5054484;28;20289;-61
2022/04/10 01:59:15;;;;;;;;;;;18.80;99.90;;;;;;5044263;28;20316;-59
2022/04/10 02:01:42;;;;;;;;;;;18.80;99.90;;;;;;5041345;28;19925;-60
2022/04/10 02:04:10;;;;;;;;;;;18.80;99.90;;;;;;5045276;28;19931;-61
2022/04/10 02:06:37;;;;;;;;;;;18.70;99.90;;;;;;5061911;28;19920;-62
2022/04/10 02:09:06;;;;;;;;;;;18.70;99.90;;;;;;5060328;28;19924;-60
2022/04/10 02:11:33;;;;;;;;;;;18.70;99.90;;;;;;5034353;28;19921;-61
2022/04/10 02:14:01;;;;;;;;;;;18.70;99.90;;;;;;5055017;28;19924;-60
2022/04/10 02:16:29;;;;;;;;;;;18.70;99.90;;;;;;5040665;28;19939;-62
2022/04/10 02:18:56;;;;;;;;;;;18.70;99.90;;;;;;5045018;28;20313;-61
2022/04/10 02:21:23;;;;;;;;;;;18.70;99.90;;;;;;5053140;28;20228;-63
2022/04/10 02:23:51;;;;;;;;;;;18.70;99.90;;;;;;5040665;28;19924;-61
2022/04/10 02:26:18;;;;;;;;;;;18.70;99.90;;;;;;5051682;28;19928;-62
2022/04/10 02:28:45;;;;;;;;;;;18.70;99.90;;;;;;5060110;28;20130;-59
2022/04/10 02:31:12;;;;;;;;;;;18.70;99.90;;;;;;5044508;28;20304;-60
2022/04/10 02:33:40;;;;;;;;;;;18.70;99.90;;;;;;5040136;28;20329;-63
2022/04/10 02:36:07;;;;;;;;;;;18.70;99.90;;;;;;5051955;28;19920;-62
2022/04/10 02:38:37;;;;;;;;;;;18.70;99.90;;;;;;5044534;28;19932;-61
2022/04/10 02:41:05;;;;;;;;;;;18.60;99.90;;;;;;5037792;28;19924;-63
2022/04/10 02:43:33;;;;;;;;;;;18.60;99.90;;;;;;5033471;28;19931;-61
2022/04/10 02:46:03;;;;;;;;;;;18.60;99.90;;;;;;5044594;28;19927;-63
2022/04/10 02:48:34;;;;;;;;;;;18.60;99.90;;;;;;5035394;28;19931;-61
2022/04/10 02:51:04;;;;;;;;;;;18.60;99.90;;;;;;5044640;28;20415;-62
2022/04/10 02:53:31;;;;;;;;;;;18.60;99.90;;;;;;5065357;28;20373;-61
2022/04/10 02:55:58;;;;;;;;;;;18.60;99.90;;;;;;5043332;28;19931;-62
2022/04/10 02:58:26;;;;;;;;;;;18.60;99.90;;;;;;5058857;28;19947;-61
2022/04/10 03:00:53;;;;;;;;;;;18.60;99.90;;;;;;5032110;28;19947;-61
2022/04/10 03:03:21;;;;;;;;;;;18.60;99.90;;;;;;5040069;28;19931;-62
2022/04/10 03:05:48;;;;;;;;;;;18.60;99.90;;;;;;5061740;28;20214;-61
2022/04/10 03:08:17;;;;;;;;;;;18.60;99.90;;;;;;5041834;28;19920;-62
2022/04/10 03:10:45;;;;;;;;;;;18.60;99.90;;;;;;5055694;28;19928;-63
2022/04/10 03:13:12;;;;;;;;;;;18.60;99.90;;;;;;5048141;28;20258;-60
2022/04/10 03:15:39;;;;;;;;;;;18.60;99.90;;;;;;5062509;28;19933;-62
2022/04/10 03:18:07;;;;;;;;;;;18.50;99.90;;;;;;5039280;28;19928;-61
2022/04/10 03:20:34;;;;;;;;;;;18.60;99.90;;;;;;5048065;28;19928;-60
2022/04/10 03:23:08;;;;;;;;;;;18.50;99.90;;;;;;5037349;28;19924;-60
2022/04/10 03:25:36;;;;;;;;;;;18.50;99.90;;;;;;5044046;28;19936;-61
2022/04/10 03:28:04;;;;;;;;;;;18.50;99.90;;;;;;5048448;28;19921;-62
2022/04/10 03:30:31;;;;;;;;;;;18.50;99.90;;;;;;5040308;28;19925;-62
2022/04/10 03:32:59;;;;;;;;;;;18.50;99.90;;;;;;5030519;28;19952;-62
2022/04/10 03:35:27;;;;;;;;;;;18.50;99.90;;;;;;5036441;28;19932;-61
2022/04/10 03:37:55;;;;;;;;;;;18.50;99.90;;;;;;5053144;28;19931;-62
2022/04/10 03:40:23;;;;;;;;;;;18.50;99.90;;;;;;5039523;28;19932;-62
2022/04/10 03:42:52;;;;;;;;;;;18.50;99.90;;;;;;5048466;28;19920;-62
2022/04/10 03:45:19;;;;;;;;;;;18.50;99.90;;;;;;5058698;28;20416;-62
2022/04/10 03:47:46;;;;;;;;;;;18.50;99.90;;;;;;5057328;28;19921;-61
2022/04/10 03:50:20;;;;;;;;;;;18.50;99.90;;;;;;5051234;28;20038;-61
2022/04/10 03:52:47;;;;;;;;;;;18.40;99.90;;;;;;5057464;28;20397;-59
2022/04/10 03:55:15;;;;;;;;;;;18.50;99.90;;;;;;5040097;28;19925;-60
2022/04/10 03:57:42;;;;;;;;;;;18.60;99.90;;;;;;5039668;28;19925;-61
2022/04/10 04:00:09;;;;;;;;;;;18.70;99.90;;;;;;5063955;28;19924;-62
2022/04/10 04:02:48;;;;;;;;;;;18.90;99.90;;;;;;5040308;28;19925;-58
2022/04/10 04:05:22;;;;;;;;;;;19.10;99.90;;;;;;5047745;28;19920;-61
2022/04/10 04:07:50;;;;;;;;;;;19.20;99.90;;;;;;5042334;28;19928;-62
2022/04/10 04:10:25;;;;;;;;;;;19.40;99.90;;;;;;5046041;28;19925;-62
2022/04/10 04:12:52;;;;;;;;;;;19.50;99.90;;;;;;5045994;28;20467;-62
2022/04/10 04:15:19;;;;;;;;;;;19.60;99.90;;;;;;5063264;28;19936;-61
2022/04/10 04:17:47;;;;;;;;;;;19.80;99.90;;;;;;5042821;28;19925;-62
2022/04/10 04:20:15;;;;;;;;;;;20.00;99.90;;;;;;5043981;28;19976;-61
2022/04/10 04:22:44;;;;;;;;;;;20.20;99.90;;;;;;5046624;28;19931;-59
2022/04/10 04:25:11;;;;;;;;;;;20.40;99.90;;;;;;5065010;28;19920;-60
2022/04/10 04:27:40;;;;;;;;;;;20.60;99.90;;;;;;5048665;28;19924;-56
2022/04/10 04:30:07;;;;;;;;;;;20.90;99.90;;;;;;5044432;28;19925;-60
2022/04/10 04:32:39;;;;;;;;;;;21.10;99.90;;;;;;5043221;28;19925;-60
2022/04/10 04:35:06;;;;;;;;;;;21.30;99.90;;;;;;5060089;28;19928;-58
2022/04/10 04:37:40;;;;;;;;;;;21.50;99.90;;;;;;5040295;28;19939;-61
2022/04/10 04:40:10;;;;;;;;;;;21.60;99.90;;;;;;5038481;28;19929;-60
2022/04/10 04:42:37;;;;;;;;;;;21.70;99.90;;;;;;5040782;28;20412;-59
2022/04/10 04:45:06;;;;;;;;;;;21.90;99.90;;;;;;5045277;28;19939;-61
2022/04/10 04:47:34;;;;;;;;;;;22.00;99.90;;;;;;5033247;28;19928;-63
2022/04/10 04:50:02;;;;;;;;;;;22.00;99.90;;;;;;5056337;28;19924;-63
2022/04/10 04:52:34;;;;;;;;;;;22.00;99.90;;;;;;5047341;28;19939;-64
2022/04/10 04:55:01;;;;;;;;;;;22.10;99.90;;;;;;5038524;28;20499;-62
2022/04/10 04:57:28;;;;;;;;;;;22.10;99.90;;;;;;5054708;28;19924;-63
2022/04/10 04:59:56;;;;;;;;;;;22.10;99.90;;;;;;5035635;28;19924;-65
2022/04/10 05:02:23;;;;;;;;;;;22.10;99.90;;;;;;5059138;28;19928;-64
2022/04/10 05:04:53;;;;;;;;;;;22.10;99.90;;;;;;5041929;28;20690;-64
2022/04/10 05:07:23;;;;;;;;;;;22.10;99.90;;;;;;5038426;28;19931;-64
2022/04/10 05:09:52;;;;;;;;;;;21.90;99.90;;;;;;5038320;28;19935;-64
2022/04/10 05:12:19;;;;;;;;;;;21.90;99.90;;;;;;5043135;28;19927;-62
2022/04/10 05:14:48;;;;;;;;;;;21.80;99.90;;;;;;5036994;28;19931;-60
2022/04/10 05:17:16;;;;;;;;;;;21.50;99.90;;;;;;5054229;28;19924;-64
2022/04/10 05:19:47;;;;;;;;;;;21.20;99.90;;;;;;5039424;28;19928;-62
2022/04/10 05:22:15;;;;;;;;;;;21.20;99.90;;;;;;5039741;28;19925;-62
2022/04/10 05:24:50;;;;;;;;;;;21.20;99.90;;;;;;5054097;28;20407;-60
2022/04/10 05:27:18;;;;;;;;;;;21.20;99.90;;;;;;5056163;28;20412;-63
2022/04/10 05:29:45;;;;;;;;;;;21.20;99.90;;;;;;5024602;28;19939;-62
2022/04/10 05:32:12;;;;;;;;;;;21.30;99.90;;;;;;5056190;28;19931;-63
2022/04/10 05:34:40;;;;;;;;;;;21.30;99.90;;;;;;5040951;28;20411;-62
2022/04/10 05:37:07;;;;;;;;;;;21.30;99.90;;;;;;5035987;28;19928;-64
2022/04/10 05:39:42;;;;;;;;;;;21.20;99.90;;;;;;5035003;28;19936;-64
2022/04/10 05:42:10;;;;;;;;;;;21.00;99.90;;;;;;5041807;28;20298;-62
2022/04/10 05:44:37;;;;;;;;;;;21.00;99.90;;;;;;5043318;28;20389;-62
2022/04/10 05:47:07;;;;;;;;;;;21.00;99.90;;;;;;5039997;28;19938;-64
2022/04/10 05:49:35;;;;;;;;;;;21.00;99.90;;;;;;5057274;28;19924;-64
2022/04/10 05:52:03;;;;;;;;;;;21.00;99.90;;;;;;5042063;28;19935;-64
2022/04/10 05:54:36;;;;;;;;;;;21.00;99.90;;;;;;5039972;28;20007;-62
2022/04/10 05:57:04;;;;;;;;;;;20.90;99.90;;;;;;5044177;28;19935;-60
2022/04/10 05:59:31;;;;;;;;;;;20.90;99.90;;;;;;5057393;28;19940;-60
2022/04/10 06:01:59;;;;;;;;;;;20.90;99.90;;;;;;5038024;28;20242;-62
2022/04/10 06:04:26;;;;;;;;;;;20.90;99.90;;;;;;5040198;28;20112;-63
2022/04/10 06:06:54;;;;;;;;;;;20.90;99.90;;;;;;5040440;28;19936;-62
2022/04/10 06:09:28;;;;;;;;;;;20.90;99.90;;;;;;5037590;28;19935;-62
2022/04/10 06:11:55;;;;;;;;;;;20.90;99.90;;;;;;5037727;28;20333;-63
2022/04/10 06:14:25;;;;;;;;;;;20.90;99.90;;;;;;5039506;28;19932;-64
2022/04/10 06:16:52;;;;;;;;;;;20.90;99.90;;;;;;5039187;28;19943;-62
2022/04/10 06:19:23;;;;;;;;;;;20.90;99.90;;;;;;5026101;28;19955;-61
2022/04/10 06:21:52;;;;;;;;;;;21.00;99.90;;;;;;5040715;28;19935;-65
2022/04/10 06:24:21;;;;;;;;;;;21.10;99.90;;;;;;5057213;28;19936;-63
2022/04/10 06:26:49;;;;;;;;;;;21.20;99.90;;;;;;5042119;28;20424;-63
2022/04/10 06:29:17;;;;;;;;;;;21.30;99.90;;;;;;5041446;28;19924;-62
2022/04/10 06:31:52;;;;;;;;;;;21.40;99.90;;;;;;5044931;28;20424;-62
2022/04/10 06:34:22;;;;;;;;;;;21.50;99.90;;;;;;5050169;28;19924;-62
2022/04/10 06:36:50;;;;;;;;;;;21.50;99.90;;;;;;5040328;28;19928;-64
2022/04/10 06:39:19;;;;;;;;;;;21.60;99.90;;;;;;5045698;28;19936;-62
2022/04/10 06:41:49;;;;;;;;;;;21.60;99.90;;;;;;5039735;28;19925;-64
2022/04/10 06:44:41;;;;;;;;;;;21.60;99.90;;;;;;5040010;28;20437;-66
2022/04/10 06:47:18;;;;;;;;;;;21.50;99.90;;;;;;5042435;28;19924;-64
2022/04/10 06:49:46;;;;;;;;;;;21.50;99.90;;;;;;5040403;28;19936;-65
2022/04/10 06:52:13;;;;;;;;;;;21.50;99.90;;;;;;5056090;28;20313;-64
2022/04/10 06:54:42;;;;;;;;;;;21.50;99.90;;;;;;5032560;28;19928;-64
2022/04/10 06:57:11;;;;;;;;;;;21.40;99.90;;;;;;5039393;28;19935;-66
2022/04/10 06:59:38;;;;;;;;;;;21.40;99.90;;;;;;5060450;28;19931;-64
2022/04/10 07:02:09;;;;;;;;;;;21.40;99.90;;;;;;5041871;28;19924;-66
2022/04/10 07:04:37;;;;;;;;;;;21.40;99.90;;;;;;5044101;28;19928;-64
2022/04/10 07:07:06;;;;;;;;;;;21.40;99.90;;;;;;5039396;28;19931;-64
2022/04/10 07:09:34;;;;;;;;;;;21.30;99.90;;;;;;5042192;28;19928;-64
2022/04/10 07:12:01;;;;;;;;;;;21.30;99.90;;;;;;5059079;28;19948;-66
2022/04/10 07:14:36;;;;;;;;;;;21.30;99.90;;;;;;5056096;28;19924;-65
2022/04/10 07:17:03;;;;;;;;;;;21.30;99.90;;;;;;5041000;28;19925;-65
2022/04/10 07:19:31;;;;;;;;;;;21.30;99.90;;;;;;5041459;28;19929;-64
2022/04/10 07:24:46;;;;;;;;;;;21.30;99.90;;;;;;5046661;28;19943;-63
2022/04/10 07:27:13;;;;;;;;;;;21.30;99.90;;;;;;5024513;28;19924;-62
2022/04/10 07:29:54;;;;;;;;;;;21.30;99.90;;;;;;5038607;28;19928;-65
2022/04/10 07:32:27;;;;;;;;;;;21.30;99.90;;;;;;5040136;28;19931;-64
2022/04/10 07:35:05;;;;;;;;;;;21.30;99.90;;;;;;5033210;28;19947;-64
2022/04/10 07:38:05;;;;;;;;;;;21.30;99.90;;;;;;5051151;28;20850;-62
2022/04/10 07:40:33;;;;;;;;;;;21.30;99.90;;;;;;5040611;28;19924;-62
2022/04/10 07:43:00;;;;;;;;;;;21.30;99.90;;;;;;5042060;28;19920;-65
2022/04/10 07:48:34;;;;;;;;;;;21.20;99.90;;;;;;5041471;28;20640;-62
2022/04/10 07:51:02;;;;;;;;;;;21.20;99.90;;;;;;5023424;28;19961;-63
2022/04/10 07:53:45;;;;;;;;;;;21.20;99.90;;;;;;5035241;28;20289;-64
2022/04/10 07:56:14;;;;;;;;;;;21.20;99.90;;;;;;5037010;28;19925;-65
2022/04/10 07:58:42;;;;;;;;;;;21.20;99.90;;;;;;5037916;28;19933;-63
2022/04/10 08:01:20;;;;;;;;;;;21.20;99.90;;;;;;5040296;28;19929;-62
2022/04/10 08:03:51;;;;;;;;;;;21.20;99.90;;;;;;5035836;28;20382;-64
2022/04/10 08:06:39;;;;;;;;;;;21.20;99.90;;;;;;5038493;28;19925;-67
2022/04/10 08:09:06;;;;;;;;;;;21.10;99.90;;;;;;5040821;28;19925;-66
2022/04/10 08:11:33;;;;;;;;;;;21.10;99.90;;;;;;5040133;28;19920;-66
2022/04/10 08:14:01;;;;;;;;;;;21.10;99.90;;;;;;5037463;28;20362;-65
2022/04/10 08:16:28;;;;;;;;;;;21.10;99.90;;;;;;5040016;28;19924;-65
2022/04/10 08:18:56;;;;;;;;;;;21.10;99.90;;;;;;5041760;28;19944;-65
2022/04/10 08:21:23;;;;;;;;;;;21.10;99.90;;;;;;5040977;28;19924;-64
2022/04/10 08:23:50;;;;;;;;;;;21.20;99.90;;;;;;5039044;28;19931;-66
2022/04/10 08:26:17;;;;;;;;;;;21.30;99.90;;;;;;5033962;28;19924;-65
2022/04/10 08:28:44;;;;;;;;;;;21.40;99.90;;;;;;5037753;28;21067;-65
2022/04/10 08:31:11;;;;;;;;;;;21.50;99.90;;;;;;5040443;28;19924;-66
2022/04/10 08:33:39;;;;;;;;;;;21.40;99.90;;;;;;5021439;28;19924;-65
2022/04/10 08:36:06;;;;;;;;;;;21.50;99.90;;;;;;5037505;28;19936;-66
2022/04/10 08:38:33;;;;;;;;;;;21.50;99.90;;;;;;5039731;28;20377;-64
2022/04/10 08:41:01;;;;;;;;;;;21.50;99.90;;;;;;5037280;28;19935;-65
2022/04/10 08:43:28;;;;;;;;;;;21.50;99.90;;;;;;5039672;28;19948;-65
2022/04/10 08:45:57;;;;;;;;;;;21.50;99.90;;;;;;5038371;28;19954;-65
2022/04/10 08:48:27;;;;;;;;;;;21.50;99.90;;;;;;5035830;28;19936;-65
2022/04/10 08:50:57;;;;;;;;;;;21.60;99.90;;;;;;5051313;28;19934;-64
2022/04/10 08:53:25;;;;;;;;;;;21.50;99.90;;;;;;5057425;28;19928;-66
2022/04/10 08:55:52;;;;;;;;;;;21.60;99.90;;;;;;5058280;28;20207;-66
2022/04/10 08:58:20;;;;;;;;;;;21.50;99.90;;;;;;5057470;28;19928;-67
2022/04/10 09:00:47;;;;;;;;;;;21.50;99.90;;;;;;5037474;28;19924;-67
2022/04/10 09:03:15;;;;;;;;;;;21.50;99.90;;;;;;5056220;28;19932;-66
2022/04/10 09:05:42;;;;;;;;;;;21.50;99.90;;;;;;5036658;28;19935;-67
2022/04/10 09:08:13;;;;;;;;;;;21.50;99.90;;;;;;5056126;28;20369;-66
2022/04/10 09:10:56;;;;;;;;;;;21.50;99.90;;;;;;5038290;28;20046;-65
2022/04/10 09:13:30;;;;;;;;;;;21.50;99.90;;;;;;5058183;28;19925;-65
2022/04/10 09:16:08;;;;;;;;;;;21.50;99.90;;;;;;5057445;28;19924;-66
2022/04/10 09:18:56;;;;;;;;;;;21.40;99.90;;;;;;5057906;28;20027;-65
2022/04/10 09:21:23;;;;;;;;;;;21.40;99.90;;;;;;5055769;28;20301;-65
2022/04/10 09:23:54;;;;;;;;;;;21.40;99.90;;;;;;5057660;28;19992;-65
2022/04/10 09:26:21;;;;;;;;;;;21.40;99.90;;;;;;5057999;28;19935;-68
2022/04/10 09:28:49;;;;;;;;;;;21.40;99.90;;;;;;5057410;28;19920;-67
2022/04/10 09:31:43;;;;;;;;;;;21.30;99.90;;;;;;5057199;28;19924;-69
2022/04/10 09:34:14;;;;;;;;;;;21.30;99.90;;;;;;5054697;28;19920;-66
2022/04/10 09:36:43;;;;;;;;;;;21.30;99.90;;;;;;5057411;28;19939;-66
2022/04/10 09:39:14;;;;;;;;;;;21.30;99.90;;;;;;5059172;28;19981;-66
2022/04/10 09:41:43;;;;;;;;;;;21.20;99.90;;;;;;5059120;28;20354;-68
2022/04/10 09:44:17;;;;;;;;;;;21.20;99.90;;;;;;5058335;28;19920;-64
2022/04/10 09:46:55;;;;;;;;;;;21.20;99.90;;;;;;5039326;28;19924;-65
2022/04/10 09:49:22;;;;;;;;;;;21.20;99.90;;;;;;5058665;28;20361;-67
2022/04/10 09:52:08;;;;;;;;;;;21.20;99.90;;;;;;5055396;28;19928;-67
2022/04/10 09:54:40;;;;;;;;;;;21.20;99.90;;;;;;5060005;28;19951;-67
2022/04/10 09:57:11;;;;;;;;;;;21.10;99.90;;;;;;5056477;28;20565;-68
2022/04/10 09:59:40;;;;;;;;;;;21.10;99.90;;;;;;5060394;28;20507;-68
2022/04/10 10:02:08;;;;;;;;;;;21.10;99.90;;;;;;5057933;28;20139;-65
2022/04/10 10:04:37;;;;;;;;;;;21.10;99.90;;;;;;5059046;28;19924;-64
2022/04/10 10:07:05;;;;;;;;;;;21.20;99.90;;;;;;5052173;28;19948;-65
2022/04/10 10:09:33;;;;;;;;;;;21.20;99.90;;;;;;5055909;28;20305;-66
2022/04/10 10:12:01;;;;;;;;;;;21.40;99.90;;;;;;5057364;28;20216;-66
2022/04/10 10:14:29;;;;;;;;;;;21.50;99.90;;;;;;5060344;28;19932;-66
2022/04/10 10:16:57;;;;;;;;;;;21.50;99.90;;;;;;5056085;28;19925;-64
2022/04/10 10:19:26;;;;;;;;;;;21.60;99.90;;;;;;5059504;28;19928;-67
2022/04/10 10:21:56;;;;;;;;;;;21.70;99.90;;;;;;5055915;28;19928;-66
2022/04/10 10:24:24;;;;;;;;;;;21.80;99.90;;;;;;5058533;28;20137;-64
2022/04/10 10:27:07;;;;;;;;;;;21.80;99.90;;;;;;5054709;28;19929;-66
2022/04/10 10:29:34;;;;;;;;;;;21.80;99.90;;;;;;5057777;28;19925;-66
2022/04/10 10:32:36;;;;;;;;;;;21.80;99.90;;;;;;5059760;28;19920;-66
2022/04/10 10:35:04;;;;;;;;;;;21.80;99.90;;;;;;5000651;28;19981;-64
2022/04/10 10:37:49;;;;;;;;;;;21.70;99.90;;;;;;5048837;28;20290;-66
2022/04/10 10:40:19;;;;;;;;;;;21.80;99.90;;;;;;5057552;28;20421;-66
2022/04/10 10:42:48;;;;;;;;;;;21.80;99.90;;;;;;5053038;28;20594;-63
2022/04/10 10:45:32;;;;;;;;;;;21.80;99.90;;;;;;5057833;28;20312;-67
2022/04/10 10:48:18;;;;;;;;;;;21.80;99.90;;;;;;5033597;28;19924;-67
2022/04/10 10:50:45;;;;;;;;;;;21.80;99.90;;;;;;5055444;28;19928;-63
2022/04/10 10:53:13;;;;;;;;;;;21.80;99.90;;;;;;5037735;28;20369;-63
2022/04/10 10:55:46;;;;;;;;;;;21.70;99.90;;;;;;5057116;28;19924;-63
2022/04/10 10:58:14;;;;;;;;;;;21.70;99.90;;;;;;5036361;28;19935;-63
2022/04/10 11:00:44;;;;;;;;;;;21.70;99.90;;;;;;5054351;28;19924;-65
2022/04/10 11:03:11;;;;;;;;;;;21.60;99.90;;;;;;5052569;28;19936;-64
2022/04/10 11:05:39;;;;;;;;;;;21.60;99.90;;;;;;5056987;28;19929;-63
2022/04/10 11:08:06;;;;;;;;;;;21.60;99.90;;;;;;5052228;28;19924;-65
2022/04/10 11:10:38;;;;;;;;;;;21.60;99.90;;;;;;5055859;28;19936;-64
2022/04/10 11:13:06;;;;;;;;;;;21.60;99.90;;;;;;5041468;28;19929;-64
2022/04/10 11:15:44;;;;;;;;;;;21.50;99.90;;;;;;5058427;28;19925;-72
2022/04/10 11:18:23;;;;;;;;;;;21.50;99.90;;;;;;5059291;28;19951;-65
2022/04/10 11:21:09;;;;;;;;;;;21.40;99.90;;;;;;5059840;28;20336;-65
2022/04/10 11:23:46;;;;;;;;;;;21.40;99.90;;;;;;5057288;28;19931;-64
2022/04/10 11:26:18;;;;;;;;;;;21.40;99.90;;;;;;5060757;28;19936;-62
2022/04/10 11:28:54;;;;;;;;;;;21.40;99.90;;;;;;5057046;28;19935;-60
2022/04/10 11:31:27;;;;;;;;;;;21.40;99.90;;;;;;5053817;28;19986;-64
2022/04/10 11:34:05;;;;;;;;;;;21.40;99.90;;;;;;5058605;28;19921;-63
2022/04/10 11:36:48;;;;;;;;;;;21.40;99.90;;;;;;5058295;28;19924;-65
2022/04/10 11:39:18;;;;;;;;;;;21.20;99.90;;;;;;5055049;28;20354;-62
2022/04/10 11:41:46;;;;;;;;;;;21.20;99.90;;;;;;5058761;28;19952;-66
2022/04/10 11:44:13;;;;;;;;;;;21.10;99.90;;;;;;5060442;28;21437;-62
2022/04/10 11:46:41;;;;;;;;;;;21.00;99.90;;;;;;5056188;28;20363;-67
2022/04/10 11:49:09;;;;;;;;;;;20.90;99.90;;;;;;5059421;28;19924;-64
2022/04/10 11:51:56;;;;;;;;;;;20.90;99.70;;;;;;5039952;28;19929;-64
2022/04/10 11:54:24;;;;;;;;;;;21.00;99.30;;;;;;5060128;28;19935;-64
2022/04/10 11:56:52;;;;;;;;;;;21.20;99.70;;;;;;5059871;28;19929;-62
2022/04/10 11:59:20;;;;;;;;;;;21.40;99.30;;;;;;5059709;28;19958;-60
2022/04/10 12:01:50;;;;;;;;;;;21.40;99.00;;;;;;5057881;28;20405;-65
2022/04/10 12:04:18;;;;;;;;;;;21.60;99.50;;;;;;5056787;28;19928;-69
2022/04/10 12:06:46;;;;;;;;;;;21.80;99.90;;;;;;5054980;28;19925;-68
2022/04/10 12:09:14;;;;;;;;;;;21.90;99.90;;;;;;5056788;28;19947;-69
2022/04/10 12:11:42;;;;;;;;;;;21.90;98.00;;;;;;5060461;28;19934;-67
2022/04/10 12:14:22;;;;;;;;;;;21.90;96.90;;;;;;5042599;28;19928;-65
2022/04/10 12:16:52;;;;;;;;;;;21.90;95.50;;;;;;5056675;28;19928;-66
2022/04/10 12:19:35;;;;;;;;;;;21.90;94.60;;;;;;5059450;28;20427;-66
2022/04/10 12:22:03;;;;;;;;;;;22.00;93.90;;;;;;5057984;28;20382;-67
2022/04/10 12:24:30;;;;;;;;;;;22.00;93.00;;;;;;5040441;28;19978;-66
2022/04/10 12:26:58;;;;;;;;;;;22.00;92.20;;;;;;5052308;28;19936;-66
2022/04/10 12:29:29;;;;;;;;;;;22.00;91.80;;;;;;5056024;28;20478;-67
2022/04/10 12:31:57;;;;;;;;;;;22.00;91.30;;;;;;5058438;28;20331;-70
2022/04/10 12:34:30;;;;;;;;;;;21.90;91.20;;;;;;5057630;28;20377;-67
2022/04/10 12:37:05;;;;;;;;;;;21.90;90.70;;;;;;5057572;28;19931;-67
2022/04/10 12:39:32;;;;;;;;;;;21.90;90.70;;;;;;5056736;28;19928;-62
2022/04/10 12:42:20;;;;;;;;;;;21.80;91.10;;;;;;5061362;28;20507;-66
2022/04/10 12:44:57;;;;;;;;;;;21.80;91.40;;;;;;5039074;28;19928;-68
2022/04/10 12:47:50;;;;;;;;;;;21.70;91.50;;;;;;5055528;28;19928;-67
2022/04/10 12:50:19;;;;;;;;;;;21.60;91.10;;;;;;5053435;28;19928;-68
2022/04/10 12:52:46;;;;;;;;;;;21.60;91.20;;;;;;5040001;28;19951;-65
2022/04/10 12:55:14;;;;;;;;;;;21.60;91.10;;;;;;5058268;28;19933;-66
2022/04/10 12:57:43;;;;;;;;;;;21.60;91.20;;;;;;5057649;28;19935;-64
2022/04/10 13:00:23;;;;;;;;;;;21.60;91.80;;;;;;5058958;28;19928;-64
2022/04/10 13:02:50;;;;;;;;;;;21.70;92.30;;;;;;5054195;28;19924;-61
2022/04/10 13:05:18;;;;;;;;;;;21.70;92.80;;;;;;5055487;28;19935;-61
2022/04/10 13:07:56;;;;;;;;;;;21.70;93.20;;;;;;5053737;28;19935;-61
2022/04/10 13:10:23;;;;;;;;;;;21.80;93.60;;;;;;5037966;28;19924;-64
2022/04/10 13:13:01;;;;;;;;;;;21.80;94.00;;;;;;5057976;28;19931;-68
2022/04/10 13:15:32;;;;;;;;;;;21.80;94.30;;;;;;5054530;28;19932;-66
2022/04/10 13:18:00;;;;;;;;;;;21.90;94.70;;;;;;5055893;28;19924;-65
2022/04/10 13:20:28;;;;;;;;;;;21.90;94.90;;;;;;5039261;28;19947;-64
2022/04/10 13:22:55;;;;;;;;;;;22.00;95.10;;;;;;5056311;28;19928;-66
2022/04/10 13:25:26;;;;;;;;;;;22.00;95.30;;;;;;5059894;28;19924;-68
2022/04/10 13:27:54;;;;;;;;;;;22.00;95.50;;;;;;5055240;28;19929;-66
2022/04/10 13:30:22;;;;;;;;;;;22.00;95.80;;;;;;5054847;28;19924;-65
2022/04/10 13:32:49;;;;;;;;;;;22.00;96.00;;;;;;5057843;28;19939;-66
2022/04/10 13:35:20;;;;;;;;;;;21.90;96.30;;;;;;5040033;28;19924;-68
2022/04/10 13:37:47;;;;;;;;;;;21.90;96.60;;;;;;5057323;28;20335;-66
2022/04/10 13:40:17;;;;;;;;;;;21.90;96.80;;;;;;5056699;28;20274;-65
2022/04/10 13:42:45;;;;;;;;;;;21.90;96.90;;;;;;5045443;28;20172;-67
2022/04/10 13:45:12;;;;;;;;;;;21.90;97.00;;;;;;5058372;28;19924;-65
2022/04/10 13:47:40;;;;;;;;;;;22.00;97.40;;;;;;5054014;28;20414;-66
2022/04/10 13:50:08;;;;;;;;;;;22.00;97.60;;;;;;5056483;28;19927;-66
2022/04/10 13:52:35;;;;;;;;;;;22.10;97.90;;;;;;5057566;28;20251;-67
2022/04/10 13:55:03;;;;;;;;;;;22.10;98.00;;;;;;5057330;28;19935;-65
2022/04/10 13:57:30;;;;;;;;;;;22.10;98.10;;;;;;5053906;28;20347;-66
2022/04/10 13:59:58;;;;;;;;;;;22.20;98.20;;;;;;5056866;28;19939;-66
2022/04/10 14:02:26;;;;;;;;;;;22.20;98.30;;;;;;5056162;28;19928;-65
2022/04/10 14:04:53;;;;;;;;;;;22.20;98.40;;;;;;5039077;28;19925;-66
2022/04/10 14:07:20;;;;;;;;;;;22.20;98.50;;;;;;5052581;28;19931;-64
2022/04/10 14:09:48;;;;;;;;;;;22.20;98.70;;;;;;5057144;28;19943;-66
2022/04/10 14:12:15;;;;;;;;;;;22.20;98.90;;;;;;5057796;28;20309;-66
2022/04/10 14:14:42;;;;;;;;;;;22.10;99.00;;;;;;5055522;28;19939;-65
2022/04/10 14:17:11;;;;;;;;;;;22.00;99.20;;;;;;5053956;28;19947;-66
2022/04/10 14:19:39;;;;;;;;;;;22.00;99.40;;;;;;5055665;28;19935;-66
2022/04/10 14:22:06;;;;;;;;;;;21.90;99.80;;;;;;5053513;28;19947;-65
2022/04/10 14:24:33;;;;;;;;;;;21.80;99.70;;;;;;5055911;28;19936;-66
2022/04/10 14:27:01;;;;;;;;;;;21.80;99.90;;;;;;5035314;28;19921;-65
2022/04/10 14:29:28;;;;;;;;;;;21.70;99.90;;;;;;5053436;28;19924;-66
2022/04/10 14:31:56;;;;;;;;;;;21.70;99.90;;;;;;5035494;28;19932;-65
2022/04/10 14:34:23;;;;;;;;;;;21.70;99.90;;;;;;5052236;28;19924;-67
2022/04/10 14:36:50;;;;;;;;;;;21.80;99.90;;;;;;5054291;28;19935;-66